createdAt,value
2018-02-24T00:02:15.523Z,7.37
2018-02-24T00:04:45.169Z,7.16
2018-02-24T00:07:15.003Z,7.03
2018-02-24T00:09:44.694Z,7.30
2018-02-24T00:12:14.651Z,7.11
2018-02-24T00:14:44.148Z,7.40
2018-02-24T00:17:13.628Z,7.23
2018-02-24T00:19:43.056Z,7.06
2018-02-24T00:22:12.770Z,7.06
2018-02-24T00:24:42.411Z,7.01
2018-02-24T00:27:12.200Z,7.17
2018-02-24T00:29:42.415Z,7.14
2018-02-24T00:32:11.816Z,7.04
2018-02-24T00:34:41.439Z,7.08
2018-02-24T00:37:10.886Z,7.03
2018-02-24T00:39:40.365Z,6.50
2018-02-24T00:42:10.046Z,6.51
2018-02-24T00:44:39.436Z,6.37
2018-02-24T00:47:09.063Z,6.20
2018-02-24T00:49:39.168Z,6.12
2018-02-24T00:52:08.663Z,6.09
2018-02-24T00:54:38.140Z,5.94
2018-02-24T00:57:07.688Z,6.05
2018-02-24T00:59:37.856Z,5.95
2018-02-24T01:02:07.310Z,5.88
2018-02-24T01:04:36.819Z,6.33
2018-02-24T01:07:07.029Z,6.47
2018-02-24T01:09:36.548Z,6.44
2018-02-24T01:12:05.970Z,6.39
2018-02-24T01:14:35.452Z,6.64
2018-02-24T01:17:05.009Z,6.69
2018-02-24T01:19:34.897Z,6.67
2018-02-24T01:22:04.393Z,6.71
2018-02-24T01:24:33.890Z,6.58
2018-02-24T01:27:03.417Z,6.60
2018-02-24T01:29:34.083Z,7.02
2018-02-24T01:32:04.435Z,6.81
2018-02-24T01:34:33.850Z,6.96
2018-02-24T01:39:39.265Z,6.69
2018-02-24T01:42:08.588Z,6.69
2018-02-24T01:44:38.758Z,6.82
2018-02-24T01:47:08.088Z,6.82
2018-02-24T01:49:37.596Z,6.84
2018-02-24T01:52:06.977Z,6.41
2018-02-24T01:54:36.557Z,6.29
2018-02-24T01:57:05.871Z,6.35
2018-02-24T01:59:35.270Z,6.53
2018-02-24T02:02:05.509Z,6.45
2018-02-24T02:04:34.865Z,6.40
2018-02-24T02:07:04.527Z,6.38
2018-02-24T02:09:34.012Z,6.55
2018-02-24T02:12:03.432Z,6.54
2018-02-24T02:14:33.136Z,6.49
2018-02-24T02:17:02.965Z,6.26
2018-02-24T02:19:32.497Z,6.41
2018-02-24T02:22:01.834Z,6.36
2018-02-24T02:24:31.204Z,6.25
2018-02-24T02:27:00.576Z,5.95
2018-02-24T02:29:29.893Z,5.80
2018-02-24T02:31:59.298Z,5.98
2018-02-24T02:34:28.720Z,6.14
2018-02-24T02:36:58.046Z,6.17
2018-02-24T02:39:27.621Z,6.00
2018-02-24T02:41:57.661Z,6.02
2018-02-24T02:44:27.163Z,5.92
2018-02-24T02:46:56.541Z,6.36
2018-02-24T02:49:26.180Z,6.56
2018-02-24T02:51:56.344Z,6.90
2018-02-24T02:54:25.736Z,6.70
2018-02-24T02:56:55.125Z,6.60
2018-02-24T02:59:25.536Z,6.88
2018-02-24T03:01:54.913Z,6.69
2018-02-24T03:04:24.255Z,6.61
2018-02-24T03:06:54.418Z,6.39
2018-02-24T03:09:24.009Z,6.46
2018-02-24T03:11:53.619Z,6.13
2018-02-24T03:14:23.197Z,6.30
2018-02-24T03:16:53.381Z,6.40
2018-02-24T03:19:22.754Z,6.47
2018-02-24T03:21:53.291Z,6.46
2018-02-24T03:24:22.737Z,6.54
2018-02-24T03:26:52.818Z,6.43
2018-02-24T03:29:22.502Z,6.41
2018-02-24T03:31:52.141Z,6.44
2018-02-24T03:34:21.562Z,6.33
2018-02-24T03:36:51.305Z,6.64
2018-02-24T03:39:20.747Z,6.47
2018-02-24T03:41:50.965Z,6.44
2018-02-24T03:44:20.383Z,6.48
2018-02-24T03:46:49.852Z,6.60
2018-02-24T03:49:19.217Z,6.50
2018-02-24T03:51:49.305Z,6.61
2018-02-24T03:54:18.885Z,6.49
2018-02-24T03:56:48.402Z,6.43
2018-02-24T03:59:17.704Z,6.33
2018-02-24T04:01:47.730Z,6.24
2018-02-24T04:04:17.716Z,6.13
2018-02-24T04:06:48.017Z,6.14
2018-02-24T04:09:17.548Z,6.21
2018-02-24T04:11:46.979Z,6.23
2018-02-24T04:14:16.374Z,6.16
2018-02-24T04:16:45.821Z,6.32
2018-02-24T04:19:15.215Z,6.51
2018-02-24T04:21:45.327Z,6.43
2018-02-24T04:24:14.802Z,6.38
2018-02-24T04:26:44.251Z,6.50
2018-02-24T04:29:13.633Z,6.60
2018-02-24T04:31:43.012Z,6.64
2018-02-24T04:34:13.380Z,6.40
2018-02-24T04:36:43.597Z,6.17
2018-02-24T04:39:12.964Z,6.42
2018-02-24T04:41:42.580Z,6.32
2018-02-24T04:44:12.171Z,6.18
2018-02-24T04:46:41.805Z,6.07
2018-02-24T04:49:11.273Z,5.81
2018-02-24T04:51:42.521Z,5.72
2018-02-24T04:54:11.965Z,5.47
2018-02-24T04:56:42.652Z,5.73
2018-02-24T04:59:16.358Z,5.51
2018-02-24T05:01:46.662Z,5.63
2018-02-24T05:04:20.285Z,5.78
2018-02-24T05:06:50.744Z,5.48
2018-02-24T05:09:22.169Z,5.72
2018-02-24T05:11:54.543Z,5.79
2018-02-24T05:14:30.098Z,5.75
2018-02-24T05:17:04.230Z,5.90
2018-02-24T05:19:35.830Z,5.79
2018-02-24T05:22:12.398Z,5.70
2018-02-24T05:24:41.838Z,5.65
2018-02-24T05:27:16.546Z,5.21
2018-02-24T05:29:48.931Z,5.42
2018-02-24T05:35:06.579Z,5.08
2018-02-24T05:37:37.497Z,5.20
2018-02-24T05:40:09.271Z,5.12
2018-02-24T05:42:42.729Z,4.98
2018-02-24T05:45:13.476Z,5.15
2018-02-24T05:47:42.967Z,5.17
2018-02-24T05:50:12.522Z,5.56
2018-02-24T05:52:42.151Z,5.53
2018-02-24T05:55:12.145Z,5.77
2018-02-24T05:57:41.550Z,5.51
2018-02-24T06:00:11.021Z,5.81
2018-02-24T06:02:46.051Z,5.47
2018-02-24T06:05:15.612Z,5.47
2018-02-24T06:07:45.127Z,5.19
2018-02-24T06:10:15.468Z,5.27
2018-02-24T06:12:46.528Z,5.31
2018-02-24T06:15:17.276Z,5.14
2018-02-24T06:17:49.685Z,5.17
2018-02-24T06:20:19.677Z,5.34
2018-02-24T06:22:50.262Z,5.16
2018-02-24T06:25:20.977Z,5.34
2018-02-24T06:27:54.762Z,5.29
2018-02-24T06:33:02.833Z,5.12
2018-02-24T06:35:32.839Z,5.22
2018-02-24T06:38:03.717Z,5.21
2018-02-24T06:40:34.859Z,5.21
2018-02-24T06:43:06.807Z,5.22
2018-02-24T06:45:37.602Z,5.35
2018-02-24T06:48:10.038Z,5.30
2018-02-24T06:50:40.806Z,5.26
2018-02-24T08:27:14.149Z,6.06
2018-02-24T10:38:47.342Z,7.03
2018-02-24T10:41:16.786Z,7.08
2018-02-24T10:43:46.189Z,8.01
2018-02-24T10:46:15.893Z,8.02
2018-02-24T10:48:46.178Z,7.94
2018-02-24T10:58:44.905Z,6.73
2018-02-24T11:01:14.348Z,6.58
2018-02-24T11:03:44.528Z,6.41
2018-02-24T11:06:13.953Z,6.21
2018-02-24T11:08:43.478Z,6.03
2018-02-24T11:39:12.690Z,7.32
2018-02-24T11:41:42.255Z,7.14
2018-02-24T11:44:15.027Z,6.64
2018-02-24T11:47:16.205Z,7.10
2018-02-24T11:49:52.415Z,6.74
2018-02-24T11:52:23.081Z,6.56
2018-02-24T11:59:11.138Z,6.34
2018-02-24T12:01:40.460Z,6.45
2018-02-24T12:04:10.081Z,6.24
2018-02-24T12:06:39.367Z,6.35
2018-02-24T12:09:08.768Z,6.80
2018-02-24T12:11:38.347Z,6.82
2018-02-24T12:14:09.754Z,6.45
2018-02-24T12:16:46.862Z,6.59
2018-02-24T12:19:17.351Z,6.55
2018-02-24T12:21:49.982Z,6.45
2018-02-24T12:24:19.777Z,6.21
2018-02-24T12:26:56.670Z,6.22
2018-02-24T12:29:27.515Z,6.56
2018-02-24T12:31:56.814Z,6.49
2018-02-24T12:34:33.916Z,6.58
2018-02-24T12:37:03.343Z,6.62
2018-02-24T12:39:34.574Z,6.61
2018-02-24T12:42:03.981Z,6.52
2018-02-24T12:44:33.528Z,6.10
2018-02-24T12:47:03.105Z,5.64
2018-02-24T12:49:34.084Z,5.76
2018-02-24T12:52:03.773Z,5.42
2018-02-24T12:54:33.540Z,5.22
2018-02-24T13:17:11.337Z,6.35
2018-02-24T13:19:49.507Z,6.29
2018-02-24T13:22:18.901Z,6.64
2018-02-24T13:24:48.327Z,7.00
2018-02-24T13:27:17.954Z,7.01
2018-02-24T13:54:30.619Z,7.21
2018-02-24T13:57:01.603Z,7.08
2018-02-24T13:59:31.291Z,7.03
2018-02-24T14:02:02.101Z,7.42
2018-02-24T14:04:32.338Z,8.02
2018-02-24T14:17:15.400Z,9.26
2018-02-24T14:19:47.592Z,9.47
2018-02-24T14:22:17.112Z,9.03
2018-02-24T14:24:46.560Z,8.99
2018-02-24T14:27:15.968Z,8.78
2018-02-24T14:29:45.480Z,8.69
2018-02-24T14:32:15.787Z,8.71
2018-02-24T14:34:45.197Z,8.77
2018-02-24T14:37:14.733Z,8.48
2018-02-24T14:39:44.508Z,8.54
2018-02-24T14:42:14.143Z,8.40
2018-02-24T14:44:43.548Z,8.46
2018-02-24T14:47:13.446Z,8.66
2018-02-24T16:14:32.184Z,6.08
2018-02-24T16:17:02.436Z,6.44
2018-02-24T16:19:32.221Z,6.29
2018-02-24T16:22:39.110Z,6.29
